createdAt,value
2017-06-26T00:00:31.982Z,0
2017-06-26T00:01:32.013Z,0
2017-06-26T00:02:32.054Z,0
2017-06-26T00:04:46.696Z,0
2017-06-26T00:05:32.105Z,0
2017-06-26T00:06:32.136Z,0
2017-06-26T00:07:32.156Z,0
2017-06-26T00:10:46.848Z,0
2017-06-26T00:11:32.254Z,0
2017-06-26T00:12:32.281Z,0
2017-06-26T00:13:32.308Z,0
2017-06-26T00:14:32.021Z,0
2017-06-26T00:15:32.048Z,0
2017-06-26T00:16:32.072Z,0
2017-06-26T00:17:32.095Z,0
2017-06-26T00:18:47.040Z,0
2017-06-26T00:19:32.146Z,0
2017-06-26T00:20:32.504Z,0
2017-06-26T00:21:47.116Z,0
2017-06-26T00:22:32.222Z,0
2017-06-26T00:23:32.245Z,0
2017-06-26T00:26:47.237Z,0
2017-06-26T00:27:32.642Z,0
2017-06-26T00:28:32.669Z,0
2017-06-26T00:29:32.692Z,0
2017-06-26T00:30:32.719Z,0
2017-06-26T00:31:32.745Z,0
2017-06-26T00:32:47.382Z,0
2017-06-26T00:33:32.790Z,0
2017-06-26T00:34:32.810Z,0
2017-06-26T00:35:32.838Z,0
2017-06-26T00:36:32.870Z,0
2017-06-26T00:37:47.502Z,0
2017-06-26T00:38:32.914Z,0
2017-06-26T00:39:32.632Z,0
2017-06-26T00:40:47.880Z,0
2017-06-26T00:41:32.985Z,0
2017-06-26T00:42:47.623Z,0
2017-06-26T00:43:33.033Z,0
2017-06-26T00:44:33.056Z,0
2017-06-26T00:45:33.080Z,0
2017-06-26T00:46:33.107Z,0
2017-06-26T00:47:33.135Z,0
2017-06-26T00:48:47.772Z,0
2017-06-26T00:49:33.181Z,0
2017-06-26T00:50:33.212Z,0
2017-06-26T00:51:33.230Z,0
2017-06-26T00:52:47.867Z,0
2017-06-26T00:53:32.967Z,0
2017-06-26T00:54:33.302Z,0
2017-06-26T00:55:47.941Z,0
2017-06-26T00:57:47.990Z,0
2017-06-26T00:58:33.400Z,0
2017-06-26T00:59:33.422Z,0
2017-06-26T01:00:33.447Z,0
2017-06-26T01:01:33.475Z,0
2017-06-26T01:02:33.496Z,0
2017-06-26T01:03:48.138Z,0
2017-06-26T01:04:33.546Z,0
2017-06-26T01:05:33.591Z,0
2017-06-26T01:06:33.596Z,0
2017-06-26T01:07:33.616Z,0
2017-06-26T01:08:48.261Z,0
2017-06-26T01:09:33.714Z,0
2017-06-26T01:10:33.699Z,0
2017-06-26T01:11:33.769Z,0
2017-06-26T01:14:33.790Z,0
2017-06-26T01:15:33.815Z,0
2017-06-26T01:16:33.840Z,0
2017-06-26T01:17:33.862Z,0
2017-06-26T01:18:33.883Z,0
2017-06-26T01:19:34.015Z,0
2017-06-26T01:20:33.934Z,0
2017-06-26T01:21:33.958Z,0
2017-06-26T01:22:33.985Z,0
2017-06-26T01:23:48.626Z,0
2017-06-26T01:24:34.032Z,0
2017-06-26T01:25:48.669Z,0
2017-06-26T01:26:33.478Z,0
2017-06-26T01:27:33.811Z,0
2017-06-26T01:28:34.128Z,0
2017-06-26T01:29:48.769Z,0
2017-06-26T01:30:34.174Z,0
2017-06-26T01:31:34.204Z,0
2017-06-26T01:32:34.225Z,0
2017-06-26T01:33:34.246Z,0
2017-06-26T01:34:34.274Z,0
2017-06-26T01:35:34.298Z,0
2017-06-26T01:36:34.321Z,0
2017-06-26T01:37:48.965Z,0
2017-06-26T01:38:34.373Z,0
2017-06-26T01:39:34.396Z,0
2017-06-26T01:40:49.087Z,0
2017-06-26T01:41:34.443Z,0
2017-06-26T01:42:49.091Z,0
2017-06-26T01:43:49.112Z,0
2017-06-26T01:44:34.522Z,0
2017-06-26T01:45:49.159Z,0
2017-06-26T01:46:34.573Z,0
2017-06-26T01:47:34.590Z,0
2017-06-26T01:48:34.621Z,0
2017-06-26T01:49:34.639Z,0
2017-06-26T01:50:34.665Z,0
2017-06-26T01:51:34.682Z,0
2017-06-26T01:52:34.709Z,0
2017-06-26T01:53:34.734Z,0
2017-06-26T01:54:49.376Z,0
2017-06-26T01:55:34.783Z,0
2017-06-26T01:56:34.808Z,0
2017-06-26T01:57:34.835Z,0
2017-06-26T01:58:49.470Z,0
2017-06-26T01:59:34.883Z,0
2017-06-26T02:01:49.549Z,0
2017-06-26T02:02:34.952Z,0
2017-06-26T02:03:34.980Z,0
2017-06-26T02:04:35.003Z,0
2017-06-26T02:05:35.023Z,0
2017-06-26T02:06:35.050Z,0
2017-06-26T02:07:35.078Z,0
2017-06-26T02:08:35.098Z,0
2017-06-26T02:09:35.119Z,0
2017-06-26T02:10:49.763Z,0
2017-06-26T02:11:35.175Z,0
2017-06-26T02:12:35.193Z,4
2017-06-26T02:13:35.222Z,4
2017-06-26T02:14:35.268Z,4
2017-06-26T02:15:35.270Z,4
2017-06-26T02:16:35.294Z,4
2017-06-26T02:17:49.931Z,4
2017-06-26T02:18:35.339Z,4
2017-06-26T02:19:35.362Z,8
2017-06-26T02:20:35.395Z,4
2017-06-26T02:21:35.419Z,8
2017-06-26T02:22:35.440Z,8
2017-06-26T02:23:35.464Z,8
2017-06-26T02:24:35.484Z,12
2017-06-26T02:25:35.508Z,8
2017-06-26T02:26:35.533Z,12
2017-06-26T02:27:35.552Z,12
2017-06-26T02:28:50.199Z,16
2017-06-26T02:29:50.224Z,20
2017-06-26T02:30:35.637Z,20
2017-06-26T02:31:35.658Z,20
2017-06-26T02:32:49.991Z,20
2017-06-26T02:33:35.704Z,20
2017-06-26T02:34:35.729Z,24
2017-06-26T02:35:35.751Z,24
2017-06-26T02:36:35.781Z,28
2017-06-26T02:37:35.802Z,36
2017-06-26T02:38:35.826Z,40
2017-06-26T02:39:35.857Z,48
2017-06-26T02:40:35.875Z,52
2017-06-26T02:41:35.895Z,56
2017-06-26T02:42:35.922Z,64
2017-06-26T02:43:35.950Z,80
2017-06-26T02:44:35.971Z,92
2017-06-26T02:46:36.019Z,120
2017-06-26T02:47:36.045Z,144
2017-06-26T02:48:36.067Z,164
2017-06-26T02:49:36.146Z,188
2017-06-26T02:50:36.117Z,216
2017-06-26T02:51:36.137Z,244
2017-06-26T02:52:36.164Z,272
2017-06-26T02:53:36.185Z,304
2017-06-26T02:54:36.209Z,324
2017-06-26T02:55:50.854Z,348
2017-06-26T02:56:35.964Z,372
2017-06-26T02:57:36.285Z,408
2017-06-26T02:58:36.306Z,444
2017-06-26T03:00:36.355Z,484
2017-06-26T03:01:36.386Z,496
2017-06-26T03:02:36.404Z,496
2017-06-26T03:03:36.429Z,464
2017-06-26T03:04:51.070Z,420
2017-06-26T03:05:36.479Z,392
2017-06-26T03:06:36.504Z,392
2017-06-26T03:07:36.529Z,416
2017-06-26T03:08:36.247Z,384
2017-06-26T03:09:36.574Z,312
2017-06-26T03:10:36.595Z,252
2017-06-26T03:11:36.624Z,236
2017-06-26T03:12:36.647Z,220
2017-06-26T03:13:51.287Z,184
2017-06-26T03:14:36.700Z,172
2017-06-26T03:15:36.721Z,164
2017-06-26T03:16:36.742Z,172
2017-06-26T03:18:36.793Z,176
2017-06-26T03:19:36.815Z,176
2017-06-26T03:21:06.076Z,168
2017-06-26T03:21:36.867Z,172
2017-06-26T03:22:36.888Z,180
2017-06-26T03:23:36.915Z,184
2017-06-26T03:24:36.933Z,196
2017-06-26T03:25:36.960Z,220
2017-06-26T03:26:36.983Z,236
2017-06-26T03:27:37.008Z,224
2017-06-26T03:28:51.647Z,200
2017-06-26T03:29:51.675Z,180
2017-06-26T03:30:37.079Z,176
2017-06-26T03:31:37.106Z,156
2017-06-26T03:32:37.126Z,144
2017-06-26T03:33:37.152Z,148
2017-06-26T03:34:36.878Z,148
2017-06-26T03:35:37.203Z,156
2017-06-26T03:36:51.846Z,168
2017-06-26T03:37:37.246Z,172
2017-06-26T03:38:37.273Z,176
2017-06-26T03:39:37.295Z,172
2017-06-26T03:40:37.320Z,168
2017-06-26T03:41:37.348Z,180
2017-06-26T03:42:37.369Z,156
2017-06-26T03:43:37.401Z,124
2017-06-26T03:44:37.418Z,108
2017-06-26T03:45:37.443Z,116
2017-06-26T03:46:37.472Z,124
2017-06-26T03:47:52.105Z,116
2017-06-26T03:48:37.517Z,112
2017-06-26T03:49:52.154Z,128
2017-06-26T03:50:37.567Z,148
2017-06-26T03:51:37.589Z,196
2017-06-26T03:52:52.231Z,264
2017-06-26T03:53:37.634Z,324
2017-06-26T03:54:37.676Z,368
2017-06-26T03:55:37.683Z,404
2017-06-26T03:56:37.705Z,476
2017-06-26T03:57:37.732Z,552
2017-06-26T03:58:37.778Z,656
2017-06-26T03:59:37.780Z,772
2017-06-26T04:00:37.858Z,788
2017-06-26T04:01:37.834Z,828
2017-06-26T04:02:37.853Z,884
2017-06-26T04:03:37.879Z,980
2017-06-26T04:04:37.598Z,1052
2017-06-26T04:05:37.973Z,1152
2017-06-26T04:06:37.950Z,1316
2017-06-26T04:07:52.591Z,1872
2017-06-26T04:08:37.996Z,1948
2017-06-26T04:09:38.026Z,1856
2017-06-26T04:10:38.049Z,1844
2017-06-26T04:11:38.074Z,1800
2017-06-26T04:12:52.715Z,2388
2017-06-26T04:13:38.115Z,2452
2017-06-26T04:14:37.839Z,2732
2017-06-26T04:15:38.170Z,2948
2017-06-26T04:16:38.193Z,2808
2017-06-26T04:17:38.221Z,2796
2017-06-26T04:18:38.299Z,3336
2017-06-26T04:19:52.883Z,3824
2017-06-26T04:21:38.318Z,2776
2017-06-26T04:22:38.040Z,2476
2017-06-26T04:23:38.369Z,2448
2017-06-26T04:24:38.385Z,2448
2017-06-26T04:25:38.415Z,2336
2017-06-26T04:26:38.440Z,2240
2017-06-26T04:27:38.460Z,2176
2017-06-26T04:28:38.485Z,2072
2017-06-26T04:30:53.160Z,1600
2017-06-26T04:31:38.561Z,1568
2017-06-26T04:32:53.199Z,1496
2017-06-26T04:33:38.609Z,1388
2017-06-26T04:34:38.633Z,1316
2017-06-26T04:35:52.971Z,1256
2017-06-26T04:36:38.081Z,1260
2017-06-26T04:37:38.702Z,1312
2017-06-26T04:39:53.372Z,1380
2017-06-26T04:40:38.781Z,1456
2017-06-26T04:41:38.501Z,1428
2017-06-26T04:42:38.830Z,1356
2017-06-26T04:43:38.850Z,1464
2017-06-26T04:44:38.878Z,1568
2017-06-26T04:45:38.906Z,1656
2017-06-26T04:46:53.542Z,1612
2017-06-26T04:47:38.956Z,1612
2017-06-26T04:48:38.976Z,1608
2017-06-26T04:49:38.996Z,1636
2017-06-26T04:50:39.016Z,1548
2017-06-26T04:51:39.047Z,1420
2017-06-26T04:52:39.068Z,1264
2017-06-26T04:53:39.094Z,1116
2017-06-26T04:54:39.121Z,1196
2017-06-26T04:55:53.760Z,1248
2017-06-26T04:56:39.175Z,1340
2017-06-26T04:57:39.193Z,1388
2017-06-26T04:58:39.222Z,1372
2017-06-26T04:59:39.248Z,1392
2017-06-26T05:00:39.567Z,1484
2017-06-26T05:01:38.990Z,1476
2017-06-26T05:02:39.354Z,1448
2017-06-26T05:03:39.338Z,1416
2017-06-26T05:04:39.421Z,1356
2017-06-26T05:05:39.440Z,1436
2017-06-26T05:06:39.416Z,1548
2017-06-26T05:07:54.054Z,1728
2017-06-26T05:09:54.102Z,1932
2017-06-26T05:10:39.567Z,1952
2017-06-26T05:11:54.153Z,2004
2017-06-26T05:12:39.566Z,2036
2017-06-26T05:13:39.595Z,2308
2017-06-26T05:14:39.608Z,2416
2017-06-26T05:15:39.631Z,2388
2017-06-26T05:16:39.657Z,2276
2017-06-26T05:17:39.688Z,2120
2017-06-26T05:18:54.325Z,1836
2017-06-26T05:19:39.734Z,1820
2017-06-26T05:20:39.858Z,2004
2017-06-26T05:21:39.781Z,2196
2017-06-26T05:22:39.809Z,2132
2017-06-26T05:23:39.828Z,2012
2017-06-26T05:24:39.856Z,1964
2017-06-26T05:25:54.496Z,1860
2017-06-26T05:26:39.952Z,1796
2017-06-26T05:27:54.545Z,1640
2017-06-26T05:28:39.654Z,1540
2017-06-26T05:29:39.982Z,1416
2017-06-26T05:30:40.004Z,1392
2017-06-26T05:31:40.030Z,1400
2017-06-26T05:32:40.055Z,1260
2017-06-26T05:33:40.075Z,1280
2017-06-26T05:34:40.104Z,1532
2017-06-26T05:35:40.125Z,1660
2017-06-26T05:36:40.156Z,1612
2017-06-26T05:37:40.174Z,1556
2017-06-26T05:38:40.195Z,1608
2017-06-26T05:39:40.238Z,1604
2017-06-26T05:40:40.250Z,1296
2017-06-26T05:41:40.275Z,1052
2017-06-26T05:42:54.912Z,968
2017-06-26T05:43:40.016Z,896
2017-06-26T05:44:40.342Z,776
2017-06-26T05:45:40.380Z,784
2017-06-26T05:46:40.398Z,844
2017-06-26T05:47:40.417Z,904
2017-06-26T05:48:40.440Z,992
2017-06-26T05:49:40.476Z,1276
2017-06-26T05:50:40.496Z,1524
2017-06-26T05:51:40.567Z,2044
2017-06-26T05:52:40.539Z,1992
2017-06-26T05:53:40.573Z,1936
2017-06-26T05:55:40.620Z,1272
2017-06-26T05:56:40.642Z,1112
2017-06-26T05:57:40.667Z,1048
2017-06-26T05:59:40.716Z,1096
2017-06-26T06:00:41.042Z,1080
2017-06-26T06:01:40.763Z,936
2017-06-26T06:02:40.789Z,896
2017-06-26T06:03:40.812Z,856
2017-06-26T06:04:40.836Z,1300
2017-06-26T06:05:40.861Z,1496
2017-06-26T06:06:55.502Z,1264
2017-06-26T06:07:40.913Z,1336
2017-06-26T06:08:40.933Z,1248
2017-06-26T06:09:40.961Z,1088
2017-06-26T06:10:55.596Z,1228
2017-06-26T06:11:55.625Z,1532
2017-06-26T06:12:41.031Z,1468
2017-06-26T06:14:55.695Z,788
2017-06-26T06:15:41.106Z,748
2017-06-26T06:16:41.128Z,824
2017-06-26T06:17:41.152Z,848
2017-06-26T06:18:41.184Z,816
2017-06-26T06:19:41.203Z,748
2017-06-26T06:20:41.226Z,748
2017-06-26T06:21:41.251Z,776
2017-06-26T06:22:40.971Z,604
2017-06-26T06:24:41.352Z,640
2017-06-26T06:25:55.965Z,744
2017-06-26T06:26:41.373Z,772
2017-06-26T06:27:41.400Z,856
2017-06-26T06:28:41.420Z,948
2017-06-26T06:29:41.444Z,1236
2017-06-26T06:30:56.137Z,1504
2017-06-26T06:31:41.493Z,1564
2017-06-26T06:32:41.517Z,1364
2017-06-26T06:33:41.545Z,1160
2017-06-26T06:34:41.592Z,1328
2017-06-26T06:35:41.593Z,1384
2017-06-26T06:36:41.616Z,1232
2017-06-26T06:37:41.640Z,1136
2017-06-26T06:38:41.665Z,1184
2017-06-26T06:39:41.078Z,1144
2017-06-26T06:40:41.710Z,1144
2017-06-26T06:41:56.425Z,1316
2017-06-26T06:42:56.375Z,1580
2017-06-26T06:45:41.886Z,2776
2017-06-26T06:46:56.471Z,3784
2017-06-26T06:47:41.877Z,4220
2017-06-26T06:48:41.903Z,3472
2017-06-26T06:49:41.928Z,2480
2017-06-26T06:50:41.953Z,2388
2017-06-26T06:51:41.689Z,2376
2017-06-26T06:52:41.999Z,2228
2017-06-26T06:53:42.069Z,2108
2017-06-26T06:54:42.040Z,1972
2017-06-26T06:55:42.068Z,1688
2017-06-26T06:56:56.704Z,1656
2017-06-26T06:57:42.115Z,1776
2017-06-26T06:59:42.161Z,1936
2017-06-26T07:00:41.883Z,2092
2017-06-26T07:01:42.509Z,2264
2017-06-26T07:02:56.851Z,2392
2017-06-26T07:03:56.877Z,2356
2017-06-26T07:04:41.975Z,2244
2017-06-26T07:05:42.303Z,2156
2017-06-26T07:06:42.328Z,2208
2017-06-26T07:07:42.348Z,2260
2017-06-26T07:08:42.372Z,2352
2017-06-26T07:09:42.394Z,2508
2017-06-26T07:10:42.427Z,2536
2017-06-26T07:11:57.075Z,2388
2017-06-26T07:12:57.080Z,2480
2017-06-26T07:13:42.490Z,2528
2017-06-26T07:14:42.512Z,2504
2017-06-26T07:15:42.546Z,2344
2017-06-26T07:17:57.201Z,2116
2017-06-26T07:18:42.611Z,2072
2017-06-26T07:19:42.653Z,2064
2017-06-26T07:20:42.655Z,2144
2017-06-26T07:21:42.677Z,2204
2017-06-26T07:22:42.700Z,2340
2017-06-26T07:23:42.778Z,2484
2017-06-26T07:24:57.076Z,2684
2017-06-26T07:25:42.774Z,2876
2017-06-26T07:26:42.794Z,3056
2017-06-26T07:27:42.842Z,3248
2017-06-26T07:29:42.866Z,3796
2017-06-26T07:30:57.504Z,4112
2017-06-26T07:31:42.919Z,4188
2017-06-26T07:32:42.933Z,4248
2017-06-26T07:33:42.961Z,4376
2017-06-26T07:34:42.984Z,4524
2017-06-26T07:35:42.704Z,4380
2017-06-26T07:36:43.033Z,4108
2017-06-26T07:37:42.748Z,4172
2017-06-26T07:38:43.083Z,4484
2017-06-26T07:40:43.139Z,5836
2017-06-26T07:41:43.164Z,6848
2017-06-26T07:42:43.174Z,7752
2017-06-26T07:43:43.194Z,8828
2017-06-26T07:44:43.223Z,9680
2017-06-26T07:45:43.242Z,10752
2017-06-26T07:46:43.273Z,12752
2017-06-26T07:47:43.288Z,14556
2017-06-26T07:48:43.316Z,14384
2017-06-26T07:49:57.955Z,17888
2017-06-26T07:50:43.365Z,16872
2017-06-26T07:51:43.387Z,19328
2017-06-26T07:52:43.413Z,32448
2017-06-26T07:53:43.437Z,25568
2017-06-26T07:54:43.460Z,20480
2017-06-26T07:55:58.103Z,22656
2017-06-26T07:56:58.128Z,23168
2017-06-26T07:57:43.532Z,21664
2017-06-26T07:58:43.561Z,18880
2017-06-26T07:59:43.583Z,18880
2017-06-26T08:00:43.608Z,17696
2017-06-26T08:01:43.629Z,16436
2017-06-26T08:02:58.275Z,15548
2017-06-26T08:04:43.710Z,15688
2017-06-26T08:05:58.348Z,19008
2017-06-26T08:06:43.761Z,19776
2017-06-26T08:07:43.781Z,17984
2017-06-26T08:08:43.806Z,21120
2017-06-26T08:09:43.831Z,18720
2017-06-26T08:10:43.857Z,19136
2017-06-26T08:11:43.882Z,31744
2017-06-26T08:12:58.527Z,68000
2017-06-26T08:13:58.551Z,33536
2017-06-26T08:14:43.659Z,27200
2017-06-26T08:16:44.020Z,36672
2017-06-26T08:17:58.354Z,24032
2017-06-26T08:18:44.084Z,20352
2017-06-26T08:19:44.152Z,20576
2017-06-26T08:20:44.123Z,21344
2017-06-26T08:21:58.810Z,23392
2017-06-26T08:22:44.171Z,21440
2017-06-26T08:23:44.199Z,20128
2017-06-26T08:24:44.245Z,20704
2017-06-26T08:25:43.949Z,19328
2017-06-26T08:26:44.279Z,20672
2017-06-26T08:27:58.974Z,20704
2017-06-26T08:28:44.380Z,20576
2017-06-26T08:29:58.978Z,19552
2017-06-26T08:30:44.389Z,20832
2017-06-26T08:31:59.034Z,18848
2017-06-26T08:32:44.440Z,22848
2017-06-26T08:33:59.083Z,18464
2017-06-26T08:34:59.109Z,18048
2017-06-26T08:36:44.553Z,18944
2017-06-26T08:37:59.191Z,19040
2017-06-26T08:38:44.605Z,23616
2017-06-26T08:39:44.630Z,18112
2017-06-26T08:40:44.661Z,18208
2017-06-26T08:41:44.381Z,21344
2017-06-26T08:42:44.709Z,24000
2017-06-26T08:43:44.739Z,32320
2017-06-26T08:44:59.385Z,26144
2017-06-26T08:45:44.796Z,23680
2017-06-26T08:46:44.821Z,25216
2017-06-26T08:47:44.844Z,18048
2017-06-26T08:48:59.514Z,16728
2017-06-26T08:49:44.604Z,20288
2017-06-26T08:51:44.961Z,22112
2017-06-26T08:52:59.622Z,17792
2017-06-26T08:53:45.024Z,16756
2017-06-26T08:54:45.052Z,22720
2017-06-26T08:55:45.074Z,17664
2017-06-26T08:56:45.102Z,20608
2017-06-26T08:57:45.134Z,15616
2017-06-26T08:58:45.158Z,13688
2017-06-26T08:59:44.890Z,25952
2017-06-26T09:00:45.264Z,16760
2017-06-26T09:01:45.244Z,17152
2017-06-26T09:02:45.272Z,18144
2017-06-26T09:03:45.300Z,28480
2017-06-26T09:04:45.331Z,17568
2017-06-26T09:05:45.052Z,15128
2017-06-26T09:09:45.166Z,12880
2017-06-26T09:10:45.495Z,14212
2017-06-26T09:11:45.229Z,16756
2017-06-26T09:12:45.551Z,25312
2017-06-26T09:13:45.587Z,14828
2017-06-26T09:14:45.615Z,14448
2017-06-26T09:15:45.637Z,14404
2017-06-26T09:16:45.672Z,15516
2017-06-26T09:17:45.698Z,23936
2017-06-26T09:18:45.723Z,15676
2017-06-26T09:20:00.373Z,26080
2017-06-26T09:21:00.448Z,16296
2017-06-26T09:21:45.808Z,23040
2017-06-26T09:22:45.839Z,15476
2017-06-26T09:23:45.558Z,18784
2017-06-26T09:24:59.905Z,15108
2017-06-26T09:25:45.925Z,22656
2017-06-26T09:26:45.953Z,14744
2017-06-26T09:27:45.981Z,17216
2017-06-26T09:28:46.006Z,14296
2017-06-26T09:29:46.042Z,18720
2017-06-26T09:30:46.068Z,14740
2017-06-26T09:32:00.715Z,14836
2017-06-26T09:33:00.740Z,14640
2017-06-26T09:33:46.151Z,14772
2017-06-26T09:34:46.183Z,15080
2017-06-26T09:35:46.209Z,21280
2017-06-26T09:36:46.241Z,15144
2017-06-26T09:38:00.887Z,21248
2017-06-26T09:38:46.291Z,12432
2017-06-26T09:39:46.020Z,13796
2017-06-26T09:41:00.967Z,11540
2017-06-26T09:41:46.383Z,12324
2017-06-26T09:42:46.408Z,13308
2017-06-26T09:43:46.435Z,14012
2017-06-26T09:44:46.468Z,20704
2017-06-26T09:45:46.492Z,14432
2017-06-26T09:46:46.525Z,15168
2017-06-26T09:47:46.558Z,14692
2017-06-26T09:48:46.586Z,18112
2017-06-26T09:49:46.308Z,15800
2017-06-26T09:50:46.635Z,16028
2017-06-26T09:51:46.718Z,14888
2017-06-26T09:53:46.728Z,13596
2017-06-26T09:54:46.754Z,13384
2017-06-26T09:55:46.783Z,13420
2017-06-26T09:57:01.425Z,13652
2017-06-26T09:57:46.837Z,13768
2017-06-26T09:58:46.563Z,14092
2017-06-26T09:59:46.893Z,14592
2017-06-26T10:00:46.923Z,14572
2017-06-26T10:01:47.000Z,14472
2017-06-26T10:02:46.985Z,14312
2017-06-26T10:03:47.013Z,13800
2017-06-26T10:04:47.037Z,13544
2017-06-26T10:05:46.768Z,13328
2017-06-26T10:06:46.794Z,13128
2017-06-26T10:08:47.159Z,12860
2017-06-26T10:09:46.880Z,12612
2017-06-26T10:10:46.912Z,12552
2017-06-26T10:11:47.243Z,12672
2017-06-26T10:13:01.916Z,12968
2017-06-26T10:13:46.999Z,13284
2017-06-26T10:14:47.329Z,13248
2017-06-26T10:15:47.357Z,8560
2017-06-26T10:16:47.392Z,6404
2017-06-26T10:17:47.116Z,6840
2017-06-26T10:18:47.448Z,8940
2017-06-26T10:19:47.470Z,12164
2017-06-26T10:20:47.556Z,11136
2017-06-26T10:22:47.560Z,11532
2017-06-26T10:23:47.589Z,18048
2017-06-26T10:24:47.617Z,17120
2017-06-26T10:25:47.655Z,17088
2017-06-26T10:26:47.684Z,9940
2017-06-26T10:28:02.321Z,15524
2017-06-26T10:28:47.736Z,15416
2017-06-26T10:29:47.762Z,15904
2017-06-26T10:30:47.794Z,15644
2017-06-26T10:31:47.874Z,14664
2017-06-26T10:32:47.848Z,13660
2017-06-26T10:34:47.912Z,12924
2017-06-26T10:36:02.560Z,12988
2017-06-26T10:36:47.659Z,5868
2017-06-26T10:39:02.640Z,13312
2017-06-26T10:39:48.055Z,14640
2017-06-26T10:41:48.120Z,8368
2017-06-26T10:42:47.834Z,9128
2017-06-26T10:43:47.864Z,8632
2017-06-26T10:44:47.895Z,8508
2017-06-26T10:45:47.921Z,13536
2017-06-26T10:46:47.653Z,15432
2017-06-26T10:47:48.287Z,14292
2017-06-26T10:49:02.936Z,16112
2017-06-26T10:50:48.096Z,13232
2017-06-26T10:51:48.104Z,16372
2017-06-26T10:52:48.438Z,16060
2017-06-26T10:53:48.157Z,16164
2017-06-26T10:54:48.488Z,16040
2017-06-26T10:55:48.214Z,16548
2017-06-26T10:56:48.243Z,10868
2017-06-26T10:57:48.574Z,17152
2017-06-26T10:58:48.606Z,12924
2017-06-26T11:00:02.948Z,9980
2017-06-26T11:00:49.063Z,10548
2017-06-26T11:02:03.315Z,10136
2017-06-26T11:02:48.419Z,10240
2017-06-26T11:03:48.752Z,16864
2017-06-26T11:04:48.780Z,16544
2017-06-26T11:05:48.808Z,13764
2017-06-26T11:06:48.837Z,9284
2017-06-26T11:07:48.561Z,9256
2017-06-26T11:11:48.984Z,8552
2017-06-26T11:13:03.627Z,7928
2017-06-26T11:13:49.037Z,7320
2017-06-26T11:14:49.067Z,6464
2017-06-26T11:16:03.712Z,5848
2017-06-26T11:16:49.130Z,5776
2017-06-26T11:17:48.850Z,5892
2017-06-26T11:18:48.879Z,6284
2017-06-26T11:19:49.209Z,6792
2017-06-26T11:21:03.853Z,6448
2017-06-26T11:21:49.270Z,6092
2017-06-26T11:22:49.295Z,5640
2017-06-26T11:23:49.322Z,5096
2017-06-26T11:24:49.350Z,4924
2017-06-26T11:26:03.993Z,5472
2017-06-26T11:26:49.405Z,5928
2017-06-26T11:27:49.427Z,6704
2017-06-26T11:28:49.158Z,7044
2017-06-26T11:29:49.488Z,7588
2017-06-26T11:30:49.860Z,7788
2017-06-26T11:32:04.162Z,7240
2017-06-26T11:32:49.564Z,6912
2017-06-26T11:33:49.595Z,6424
2017-06-26T11:34:49.631Z,5912
2017-06-26T11:35:49.344Z,5764
2017-06-26T11:36:49.672Z,5272
2017-06-26T11:37:49.706Z,4944
2017-06-26T11:38:49.731Z,5076
2017-06-26T11:39:49.752Z,5772
2017-06-26T11:40:49.789Z,6176
2017-06-26T11:42:04.435Z,6276
2017-06-26T11:43:04.458Z,6320
2017-06-26T11:43:49.558Z,6856
2017-06-26T11:44:50.091Z,7136
2017-06-26T11:45:49.925Z,7380
2017-06-26T11:46:49.643Z,7300
2017-06-26T11:48:04.591Z,7560
2017-06-26T11:48:50.049Z,7340
2017-06-26T11:49:50.026Z,7064
2017-06-26T11:50:50.609Z,6868
2017-06-26T11:51:50.081Z,6648
2017-06-26T11:53:04.728Z,6532
2017-06-26T11:53:49.828Z,6460
2017-06-26T11:54:50.172Z,6424
2017-06-26T11:55:50.185Z,6596
2017-06-26T11:56:50.216Z,6372
2017-06-26T11:57:49.941Z,5904
2017-06-26T11:59:04.886Z,6108
2017-06-26T11:59:50.357Z,6860
2017-06-26T12:00:50.823Z,9988
2017-06-26T12:01:50.352Z,10492
2017-06-26T12:03:05.000Z,7600
2017-06-26T12:03:50.405Z,7320
2017-06-26T12:04:50.487Z,7604
2017-06-26T12:05:50.464Z,7748
2017-06-26T12:06:50.490Z,7376
2017-06-26T12:07:50.513Z,6776
2017-06-26T12:08:50.538Z,6368
2017-06-26T12:09:50.612Z,6016
2017-06-26T12:12:05.285Z,6180
2017-06-26T12:12:50.345Z,6788
2017-06-26T12:13:50.674Z,9740
2017-06-26T12:14:50.714Z,10144
2017-06-26T12:15:50.733Z,8840
2017-06-26T12:16:50.754Z,9876
2017-06-26T12:19:50.838Z,8124
2017-06-26T12:20:50.860Z,7804
2017-06-26T12:21:50.892Z,7624
2017-06-26T12:22:50.919Z,7624
2017-06-26T12:23:50.943Z,5972
2017-06-26T12:25:05.593Z,7564
2017-06-26T12:25:50.999Z,7468
2017-06-26T12:26:51.029Z,7560
2017-06-26T12:27:51.057Z,5820
2017-06-26T12:28:51.078Z,5052
2017-06-26T12:29:51.158Z,4876
2017-06-26T12:30:51.338Z,5280
2017-06-26T12:31:51.168Z,5940
2017-06-26T12:33:05.807Z,6484
2017-06-26T12:33:51.226Z,6584
2017-06-26T12:35:05.860Z,6816
2017-06-26T12:35:50.971Z,7664
2017-06-26T12:36:51.300Z,9376
2017-06-26T12:37:51.022Z,8508
2017-06-26T12:38:51.054Z,8340
2017-06-26T12:39:51.405Z,8204
2017-06-26T12:40:51.411Z,8368
2017-06-26T12:41:51.433Z,10528
2017-06-26T12:42:51.462Z,7792
2017-06-26T12:43:51.492Z,7508
2017-06-26T12:45:05.832Z,7304
2017-06-26T12:45:51.243Z,9792
2017-06-26T12:47:51.601Z,7384
2017-06-26T12:49:05.938Z,7264
2017-06-26T12:49:51.658Z,6008
2017-06-26T12:51:06.297Z,6140
2017-06-26T12:51:51.410Z,6252
2017-06-26T12:52:51.435Z,6504
2017-06-26T12:53:51.460Z,6436
2017-06-26T12:54:51.842Z,6240
2017-06-26T12:57:06.159Z,6332
2017-06-26T12:57:51.873Z,5900
2017-06-26T12:58:51.896Z,5524
2017-06-26T12:59:51.621Z,5328
2017-06-26T13:00:51.650Z,5064
2017-06-26T13:01:51.990Z,4972
2017-06-26T13:04:06.652Z,4816
2017-06-26T13:04:51.758Z,4784
2017-06-26T13:05:52.090Z,4832
2017-06-26T13:07:06.734Z,5084
2017-06-26T13:07:52.194Z,5088
2017-06-26T13:08:52.271Z,4732
2017-06-26T13:09:51.590Z,4832
2017-06-26T13:10:52.276Z,7776
2017-06-26T13:11:52.253Z,5800
2017-06-26T13:12:52.330Z,7196
2017-06-26T13:14:52.029Z,5216
2017-06-26T13:16:52.393Z,4632
2017-06-26T13:17:52.411Z,4976
2017-06-26T13:19:07.154Z,5140
2017-06-26T13:19:52.481Z,5224
2017-06-26T13:20:52.495Z,5252
2017-06-26T13:21:52.224Z,5236
2017-06-26T13:23:07.162Z,6984
2017-06-26T13:23:52.573Z,5456
2017-06-26T13:24:52.597Z,5176
2017-06-26T13:25:52.623Z,4868
2017-06-26T13:26:52.651Z,4712
2017-06-26T13:27:52.377Z,4772
2017-06-26T13:28:52.707Z,4868
2017-06-26T13:29:52.431Z,5236
2017-06-26T13:30:52.914Z,7876
2017-06-26T13:31:52.480Z,6396
2017-06-26T13:33:07.428Z,6052
2017-06-26T13:34:07.456Z,6080
2017-06-26T13:34:52.869Z,9076
2017-06-26T13:35:53.045Z,6724
2017-06-26T13:36:52.926Z,6832
2017-06-26T13:38:07.263Z,6876
2017-06-26T13:38:53.003Z,6664
2017-06-26T13:39:53.006Z,6360
2017-06-26T13:40:53.228Z,6680
2017-06-26T13:41:52.800Z,6960
2017-06-26T13:42:53.083Z,6712
2017-06-26T13:43:53.107Z,6508
2017-06-26T13:44:53.139Z,6440
2017-06-26T13:45:53.314Z,6464
2017-06-26T13:46:53.191Z,6176
2017-06-26T13:47:53.216Z,5640
2017-06-26T13:49:07.857Z,5056
2017-06-26T13:49:53.272Z,4856
2017-06-26T13:50:53.342Z,4564
2017-06-26T13:52:07.946Z,4236
2017-06-26T13:52:53.353Z,4084
2017-06-26T13:53:53.377Z,4164
2017-06-26T13:54:53.406Z,4552
2017-06-26T13:55:53.430Z,4696
2017-06-26T13:56:53.458Z,4720
2017-06-26T13:57:53.481Z,4960
2017-06-26T13:58:53.204Z,5436
2017-06-26T13:59:53.539Z,6040
2017-06-26T14:00:53.594Z,6440
2017-06-26T14:01:53.591Z,6472
2017-06-26T14:02:53.313Z,6708
2017-06-26T14:03:53.340Z,6732
2017-06-26T14:04:53.719Z,6740
2017-06-26T14:05:53.394Z,6864
2017-06-26T14:06:53.724Z,7168
2017-06-26T14:07:53.450Z,7092
2017-06-26T14:08:53.472Z,7132
2017-06-26T14:10:08.422Z,7400
2017-06-26T14:10:53.882Z,7296
2017-06-26T14:11:53.554Z,7260
2017-06-26T14:12:53.883Z,7276
2017-06-26T14:14:54.097Z,7160
2017-06-26T14:15:53.970Z,7172
2017-06-26T14:16:53.698Z,9208
2017-06-26T14:18:08.635Z,9812
2017-06-26T14:18:54.054Z,8084
2017-06-26T14:19:54.125Z,7984
2017-06-26T14:20:53.795Z,11144
2017-06-26T14:21:54.126Z,9588
2017-06-26T14:22:54.152Z,10204